sensor_id;sensor_type;location;lat;lon;timestamp;temperature;humidity
26803;DHT22;14378;51.796;5.808;2023-04-03T00:00:00;5.40;99.90
26803;DHT22;14378;51.796;5.808;2023-04-03T00:04:12;5.30;99.90
26803;DHT22;14378;51.796;5.808;2023-04-03T00:06:13;5.40;99.90
26803;DHT22;14378;51.796;5.808;2023-04-03T00:08:15;5.40;99.90
26803;DHT22;14378;51.796;5.808;2023-04-03T00:10:16;5.40;99.90
26803;DHT22;14378;51.796;5.808;2023-04-03T00:12:17;5.40;99.90
26803;DHT22;14378;51.796;5.808;2023-04-03T00:14:19;5.40;99.90
26803;DHT22;14378;51.796;5.808;2023-04-03T00:16:20;5.30;99.90
26803;DHT22;14378;51.796;5.808;2023-04-03T00:18:23;5.30;99.90
26803;DHT22;14378;51.796;5.808;2023-04-03T00:20:25;5.30;99.90
26803;DHT22;14378;51.796;5.808;2023-04-03T00:22:33;5.30;99.90
26803;DHT22;14378;51.796;5.808;2023-04-03T00:24:34;5.30;99.90
26803;DHT22;14378;51.796;5.808;2023-04-03T00:26:36;5.30;99.90
26803;DHT22;14378;51.796;5.808;2023-04-03T00:28:37;5.30;99.90
26803;DHT22;14378;51.796;5.808;2023-04-03T00:30:39;5.20;99.90
26803;DHT22;14378;51.796;5.808;2023-04-03T00:32:42;5.20;99.90
26803;DHT22;14378;51.796;5.808;2023-04-03T00:34:43;5.20;99.90
26803;DHT22;14378;51.796;5.808;2023-04-03T00:36:44;5.20;99.90
26803;DHT22;14378;51.796;5.808;2023-04-03T00:38:46;5.20;99.90
26803;DHT22;14378;51.796;5.808;2023-04-03T00:40:48;5.10;99.90
26803;DHT22;14378;51.796;5.808;2023-04-03T00:42:58;5.10;99.90
26803;DHT22;14378;51.796;5.808;2023-04-03T00:47:03;5.10;99.90
26803;DHT22;14378;51.796;5.808;2023-04-03T00:49:05;5.10;99.90
26803;DHT22;14378;51.796;5.808;2023-04-03T00:51:09;5.00;99.90
26803;DHT22;14378;51.796;5.808;2023-04-03T00:53:16;4.90;99.90
26803;DHT22;14378;51.796;5.808;2023-04-03T00:55:17;4.90;99.90
26803;DHT22;14378;51.796;5.808;2023-04-03T00:57:18;4.90;99.90
26803;DHT22;14378;51.796;5.808;2023-04-03T00:59:30;4.90;99.90
26803;DHT22;14378;51.796;5.808;2023-04-03T01:01:42;4.90;99.90
26803;DHT22;14378;51.796;5.808;2023-04-03T01:03:43;4.90;99.90
26803;DHT22;14378;51.796;5.808;2023-04-03T01:05:45;4.90;99.90
26803;DHT22;14378;51.796;5.808;2023-04-03T01:07:47;4.90;99.90
26803;DHT22;14378;51.796;5.808;2023-04-03T01:09:58;4.90;99.90
26803;DHT22;14378;51.796;5.808;2023-04-03T01:12:20;4.90;99.90
26803;DHT22;14378;51.796;5.808;2023-04-03T01:14:24;4.90;99.90
26803;DHT22;14378;51.796;5.808;2023-04-03T01:16:26;4.90;99.90
26803;DHT22;14378;51.796;5.808;2023-04-03T01:18:34;4.90;99.90
26803;DHT22;14378;51.796;5.808;2023-04-03T01:25:14;4.90;99.90
26803;DHT22;14378;51.796;5.808;2023-04-03T01:27:24;4.90;99.90
26803;DHT22;14378;51.796;5.808;2023-04-03T01:29:25;4.90;99.90
26803;DHT22;14378;51.796;5.808;2023-04-03T01:31:41;4.80;99.90
26803;DHT22;14378;51.796;5.808;2023-04-03T01:33:43;4.80;99.90
26803;DHT22;14378;51.796;5.808;2023-04-03T01:36:16;4.80;99.90
26803;DHT22;14378;51.796;5.808;2023-04-03T01:38:16;4.80;99.90
26803;DHT22;14378;51.796;5.808;2023-04-03T01:40:17;4.80;99.90
26803;DHT22;14378;51.796;5.808;2023-04-03T01:42:19;4.80;99.90
26803;DHT22;14378;51.796;5.808;2023-04-03T01:44:20;4.80;99.90
26803;DHT22;14378;51.796;5.808;2023-04-03T01:46:23;4.80;99.90
26803;DHT22;14378;51.796;5.808;2023-04-03T01:48:25;4.80;99.90
26803;DHT22;14378;51.796;5.808;2023-04-03T01:50:26;4.70;99.90
26803;DHT22;14378;51.796;5.808;2023-04-03T01:52:28;4.70;99.90
26803;DHT22;14378;51.796;5.808;2023-04-03T01:54:29;4.70;99.90
26803;DHT22;14378;51.796;5.808;2023-04-03T01:56:41;4.80;99.90
26803;DHT22;14378;51.796;5.808;2023-04-03T01:58:47;4.70;99.90
26803;DHT22;14378;51.796;5.808;2023-04-03T02:00:48;4.70;99.90
26803;DHT22;14378;51.796;5.808;2023-04-03T02:02:49;4.70;99.90
26803;DHT22;14378;51.796;5.808;2023-04-03T02:04:51;4.70;99.90
26803;DHT22;14378;51.796;5.808;2023-04-03T02:06:55;4.70;99.90
26803;DHT22;14378;51.796;5.808;2023-04-03T02:08:56;4.70;99.90
26803;DHT22;14378;51.796;5.808;2023-04-03T02:10:57;4.70;99.90
26803;DHT22;14378;51.796;5.808;2023-04-03T02:13:01;4.70;99.90
26803;DHT22;14378;51.796;5.808;2023-04-03T02:15:05;4.70;99.90
26803;DHT22;14378;51.796;5.808;2023-04-03T02:17:08;4.70;99.90
26803;DHT22;14378;51.796;5.808;2023-04-03T02:19:09;4.70;99.90
26803;DHT22;14378;51.796;5.808;2023-04-03T02:21:10;4.60;99.90
26803;DHT22;14378;51.796;5.808;2023-04-03T02:23:11;4.60;99.90
26803;DHT22;14378;51.796;5.808;2023-04-03T02:25:12;4.60;99.90
26803;DHT22;14378;51.796;5.808;2023-04-03T02:27:21;4.60;99.90
26803;DHT22;14378;51.796;5.808;2023-04-03T02:29:27;4.60;99.90
26803;DHT22;14378;51.796;5.808;2023-04-03T02:31:28;4.60;99.90
26803;DHT22;14378;51.796;5.808;2023-04-03T02:33:31;4.60;99.90
26803;DHT22;14378;51.796;5.808;2023-04-03T02:35:33;4.60;99.90
26803;DHT22;14378;51.796;5.808;2023-04-03T02:37:37;4.60;99.90
26803;DHT22;14378;51.796;5.808;2023-04-03T02:39:38;4.50;99.90
26803;DHT22;14378;51.796;5.808;2023-04-03T02:41:39;4.50;99.90
26803;DHT22;14378;51.796;5.808;2023-04-03T02:43:46;4.50;99.90
26803;DHT22;14378;51.796;5.808;2023-04-03T02:45:48;4.50;99.90
26803;DHT22;14378;51.796;5.808;2023-04-03T02:47:49;4.50;99.90
26803;DHT22;14378;51.796;5.808;2023-04-03T02:49:50;4.50;99.90
26803;DHT22;14378;51.796;5.808;2023-04-03T02:51:54;4.50;99.90
26803;DHT22;14378;51.796;5.808;2023-04-03T02:53:55;4.50;99.90
26803;DHT22;14378;51.796;5.808;2023-04-03T02:56:01;4.50;99.90
26803;DHT22;14378;51.796;5.808;2023-04-03T02:58:01;4.50;99.90
26803;DHT22;14378;51.796;5.808;2023-04-03T03:00:04;4.50;99.90
26803;DHT22;14378;51.796;5.808;2023-04-03T03:02:10;4.50;99.90
26803;DHT22;14378;51.796;5.808;2023-04-03T03:04:11;4.50;99.90
26803;DHT22;14378;51.796;5.808;2023-04-03T03:06:15;4.50;99.90
26803;DHT22;14378;51.796;5.808;2023-04-03T03:08:18;4.50;99.90
26803;DHT22;14378;51.796;5.808;2023-04-03T03:10:21;4.40;99.90
26803;DHT22;14378;51.796;5.808;2023-04-03T03:12:25;4.40;99.90
26803;DHT22;14378;51.796;5.808;2023-04-03T03:14:26;4.50;99.90
26803;DHT22;14378;51.796;5.808;2023-04-03T03:16:27;4.40;99.90
26803;DHT22;14378;51.796;5.808;2023-04-03T03:18:28;4.40;99.90
26803;DHT22;14378;51.796;5.808;2023-04-03T03:20:29;4.40;99.90
26803;DHT22;14378;51.796;5.808;2023-04-03T03:22:30;4.40;99.90
26803;DHT22;14378;51.796;5.808;2023-04-03T03:24:32;4.40;99.90
26803;DHT22;14378;51.796;5.808;2023-04-03T03:26:34;4.40;99.90
26803;DHT22;14378;51.796;5.808;2023-04-03T03:28:38;4.40;99.90
26803;DHT22;14378;51.796;5.808;2023-04-03T03:30:40;4.40;99.90
26803;DHT22;14378;51.796;5.808;2023-04-03T03:32:41;4.30;99.90
26803;DHT22;14378;51.796;5.808;2023-04-03T03:34:42;4.40;99.90
26803;DHT22;14378;51.796;5.808;2023-04-03T03:36:43;4.40;99.90
26803;DHT22;14378;51.796;5.808;2023-04-03T03:38:44;4.40;99.90
26803;DHT22;14378;51.796;5.808;2023-04-03T03:40:47;4.30;99.90
26803;DHT22;14378;51.796;5.808;2023-04-03T03:42:50;4.30;99.90
26803;DHT22;14378;51.796;5.808;2023-04-03T03:44:51;4.30;99.90
26803;DHT22;14378;51.796;5.808;2023-04-03T03:46:55;4.30;99.90
26803;DHT22;14378;51.796;5.808;2023-04-03T03:48:56;4.30;99.90
26803;DHT22;14378;51.796;5.808;2023-04-03T03:50:58;4.30;99.90
26803;DHT22;14378;51.796;5.808;2023-04-03T03:53:03;4.30;99.90
26803;DHT22;14378;51.796;5.808;2023-04-03T03:55:05;4.30;99.90
26803;DHT22;14378;51.796;5.808;2023-04-03T03:57:08;4.30;99.90
26803;DHT22;14378;51.796;5.808;2023-04-03T03:59:12;4.30;99.90
26803;DHT22;14378;51.796;5.808;2023-04-03T04:01:13;4.20;99.90
26803;DHT22;14378;51.796;5.808;2023-04-03T04:03:19;4.20;99.90
26803;DHT22;14378;51.796;5.808;2023-04-03T04:05:24;4.20;99.90
26803;DHT22;14378;51.796;5.808;2023-04-03T04:07:30;4.20;99.90
26803;DHT22;14378;51.796;5.808;2023-04-03T04:09:32;4.20;99.90
26803;DHT22;14378;51.796;5.808;2023-04-03T04:11:33;4.20;99.90
26803;DHT22;14378;51.796;5.808;2023-04-03T04:13:35;4.10;99.90
26803;DHT22;14378;51.796;5.808;2023-04-03T04:15:39;4.10;99.90
26803;DHT22;14378;51.796;5.808;2023-04-03T04:17:41;4.10;99.90
26803;DHT22;14378;51.796;5.808;2023-04-03T04:19:46;4.10;99.90
26803;DHT22;14378;51.796;5.808;2023-04-03T04:21:48;4.10;99.90
26803;DHT22;14378;51.796;5.808;2023-04-03T04:23:49;4.10;99.90
26803;DHT22;14378;51.796;5.808;2023-04-03T04:25:50;4.00;99.90
26803;DHT22;14378;51.796;5.808;2023-04-03T04:27:55;4.00;99.90
26803;DHT22;14378;51.796;5.808;2023-04-03T04:29:57;4.00;99.90
26803;DHT22;14378;51.796;5.808;2023-04-03T04:31:58;4.00;99.90
26803;DHT22;14378;51.796;5.808;2023-04-03T04:33:59;4.00;99.90
26803;DHT22;14378;51.796;5.808;2023-04-03T04:36:01;3.90;99.90
26803;DHT22;14378;51.796;5.808;2023-04-03T04:38:02;3.90;99.90
26803;DHT22;14378;51.796;5.808;2023-04-03T04:40:04;3.90;99.90
26803;DHT22;14378;51.796;5.808;2023-04-03T04:42:06;3.90;99.90
26803;DHT22;14378;51.796;5.808;2023-04-03T04:44:08;3.90;99.90
26803;DHT22;14378;51.796;5.808;2023-04-03T04:46:20;3.90;99.90
26803;DHT22;14378;51.796;5.808;2023-04-03T04:48:27;3.90;99.90
26803;DHT22;14378;51.796;5.808;2023-04-03T04:50:28;3.90;99.90
26803;DHT22;14378;51.796;5.808;2023-04-03T04:52:29;3.80;99.90
26803;DHT22;14378;51.796;5.808;2023-04-03T04:54:31;3.90;99.90
26803;DHT22;14378;51.796;5.808;2023-04-03T04:56:32;3.90;99.90
26803;DHT22;14378;51.796;5.808;2023-04-03T04:58:34;3.80;99.90
26803;DHT22;14378;51.796;5.808;2023-04-03T05:00:36;3.80;99.90
26803;DHT22;14378;51.796;5.808;2023-04-03T05:02:37;3.80;99.90
26803;DHT22;14378;51.796;5.808;2023-04-03T05:04:38;3.80;99.90
26803;DHT22;14378;51.796;5.808;2023-04-03T05:06:47;3.80;99.90
26803;DHT22;14378;51.796;5.808;2023-04-03T05:08:53;3.70;99.90
26803;DHT22;14378;51.796;5.808;2023-04-03T05:10:55;3.70;99.90
26803;DHT22;14378;51.796;5.808;2023-04-03T05:12:57;3.70;99.90
26803;DHT22;14378;51.796;5.808;2023-04-03T05:15:01;3.70;99.90
26803;DHT22;14378;51.796;5.808;2023-04-03T05:17:04;3.70;99.90
26803;DHT22;14378;51.796;5.808;2023-04-03T05:19:08;3.70;99.90
26803;DHT22;14378;51.796;5.808;2023-04-03T05:21:10;3.60;99.90
26803;DHT22;14378;51.796;5.808;2023-04-03T05:23:11;3.60;99.90
26803;DHT22;14378;51.796;5.808;2023-04-03T05:25:12;3.60;99.90
26803;DHT22;14378;51.796;5.808;2023-04-03T05:27:16;3.60;99.90
26803;DHT22;14378;51.796;5.808;2023-04-03T05:29:23;3.60;99.90
26803;DHT22;14378;51.796;5.808;2023-04-03T05:31:29;3.60;99.90
26803;DHT22;14378;51.796;5.808;2023-04-03T05:33:30;3.60;99.90
26803;DHT22;14378;51.796;5.808;2023-04-03T05:35:37;3.50;99.90
26803;DHT22;14378;51.796;5.808;2023-04-03T05:37:43;3.50;99.90
26803;DHT22;14378;51.796;5.808;2023-04-03T05:39:47;3.50;99.90
26803;DHT22;14378;51.796;5.808;2023-04-03T05:41:50;3.50;99.90
26803;DHT22;14378;51.796;5.808;2023-04-03T05:43:51;3.50;99.90
26803;DHT22;14378;51.796;5.808;2023-04-03T05:45:55;3.50;99.90
26803;DHT22;14378;51.796;5.808;2023-04-03T05:47:59;3.50;99.90
26803;DHT22;14378;51.796;5.808;2023-04-03T05:50:00;3.50;99.90
26803;DHT22;14378;51.796;5.808;2023-04-03T05:52:01;3.50;99.90
26803;DHT22;14378;51.796;5.808;2023-04-03T05:54:22;3.50;99.90
26803;DHT22;14378;51.796;5.808;2023-04-03T05:56:26;3.50;99.90
26803;DHT22;14378;51.796;5.808;2023-04-03T05:58:27;3.50;99.90
26803;DHT22;14378;51.796;5.808;2023-04-03T06:00:28;3.50;99.90
26803;DHT22;14378;51.796;5.808;2023-04-03T06:02:35;3.50;99.90
26803;DHT22;14378;51.796;5.808;2023-04-03T06:04:37;3.50;99.90
26803;DHT22;14378;51.796;5.808;2023-04-03T06:08:48;3.50;99.90
26803;DHT22;14378;51.796;5.808;2023-04-03T06:10:49;3.40;99.90
26803;DHT22;14378;51.796;5.808;2023-04-03T06:12:52;3.40;99.90
26803;DHT22;14378;51.796;5.808;2023-04-03T06:14:56;3.40;99.90
26803;DHT22;14378;51.796;5.808;2023-04-03T06:16:57;3.50;99.90
26803;DHT22;14378;51.796;5.808;2023-04-03T06:18:58;3.50;99.90
26803;DHT22;14378;51.796;5.808;2023-04-03T06:20:59;3.50;99.90
26803;DHT22;14378;51.796;5.808;2023-04-03T06:23:01;3.50;99.90
26803;DHT22;14378;51.796;5.808;2023-04-03T06:25:03;3.50;99.90
26803;DHT22;14378;51.796;5.808;2023-04-03T06:27:04;3.60;99.90
26803;DHT22;14378;51.796;5.808;2023-04-03T06:29:05;3.60;99.90
26803;DHT22;14378;51.796;5.808;2023-04-03T06:31:06;3.60;99.90
26803;DHT22;14378;51.796;5.808;2023-04-03T06:33:07;3.60;99.90
26803;DHT22;14378;51.796;5.808;2023-04-03T06:35:09;3.60;99.90
26803;DHT22;14378;51.796;5.808;2023-04-03T06:37:17;3.70;99.90
26803;DHT22;14378;51.796;5.808;2023-04-03T06:39:21;3.70;99.90
26803;DHT22;14378;51.796;5.808;2023-04-03T06:41:24;3.70;99.90
26803;DHT22;14378;51.796;5.808;2023-04-03T06:43:26;3.70;99.90
26803;DHT22;14378;51.796;5.808;2023-04-03T06:45:28;3.70;99.90
26803;DHT22;14378;51.796;5.808;2023-04-03T06:47:29;3.70;99.90
26803;DHT22;14378;51.796;5.808;2023-04-03T06:49:30;3.70;99.90
26803;DHT22;14378;51.796;5.808;2023-04-03T06:51:34;3.70;99.90
26803;DHT22;14378;51.796;5.808;2023-04-03T06:53:35;3.80;99.90
26803;DHT22;14378;51.796;5.808;2023-04-03T06:55:37;3.80;99.90
26803;DHT22;14378;51.796;5.808;2023-04-03T06:57:38;3.80;99.90
26803;DHT22;14378;51.796;5.808;2023-04-03T06:59:39;3.80;99.90
26803;DHT22;14378;51.796;5.808;2023-04-03T07:01:41;3.70;99.90
26803;DHT22;14378;51.796;5.808;2023-04-03T07:03:42;3.70;99.90
26803;DHT22;14378;51.796;5.808;2023-04-03T07:05:44;3.80;99.90
26803;DHT22;14378;51.796;5.808;2023-04-03T07:07:45;3.70;99.90
26803;DHT22;14378;51.796;5.808;2023-04-03T07:09:46;3.80;99.90
26803;DHT22;14378;51.796;5.808;2023-04-03T07:11:48;3.80;99.90
26803;DHT22;14378;51.796;5.808;2023-04-03T07:13:50;3.80;99.90
26803;DHT22;14378;51.796;5.808;2023-04-03T07:15:52;3.80;99.90
26803;DHT22;14378;51.796;5.808;2023-04-03T07:17:54;3.90;99.90
26803;DHT22;14378;51.796;5.808;2023-04-03T07:19:58;3.90;99.90
26803;DHT22;14378;51.796;5.808;2023-04-03T07:21:59;3.90;99.90
26803;DHT22;14378;51.796;5.808;2023-04-03T07:24:03;3.90;99.90
26803;DHT22;14378;51.796;5.808;2023-04-03T07:26:04;3.90;99.90
26803;DHT22;14378;51.796;5.808;2023-04-03T07:28:05;4.00;99.90
26803;DHT22;14378;51.796;5.808;2023-04-03T07:30:09;4.00;99.90
26803;DHT22;14378;51.796;5.808;2023-04-03T07:32:10;4.00;99.90
26803;DHT22;14378;51.796;5.808;2023-04-03T07:34:13;4.00;99.90
26803;DHT22;14378;51.796;5.808;2023-04-03T07:36:19;4.10;99.90
26803;DHT22;14378;51.796;5.808;2023-04-03T07:38:21;4.10;99.90
26803;DHT22;14378;51.796;5.808;2023-04-03T07:40:24;4.10;99.90
26803;DHT22;14378;51.796;5.808;2023-04-03T07:42:26;4.20;99.90
26803;DHT22;14378;51.796;5.808;2023-04-03T07:44:29;4.20;99.90
26803;DHT22;14378;51.796;5.808;2023-04-03T07:46:32;4.30;99.90
26803;DHT22;14378;51.796;5.808;2023-04-03T07:48:35;4.30;99.90
26803;DHT22;14378;51.796;5.808;2023-04-03T07:50:37;4.40;99.90
26803;DHT22;14378;51.796;5.808;2023-04-03T07:52:38;4.40;99.90
26803;DHT22;14378;51.796;5.808;2023-04-03T07:54:39;4.40;99.90
26803;DHT22;14378;51.796;5.808;2023-04-03T07:56:41;4.40;99.90
26803;DHT22;14378;51.796;5.808;2023-04-03T07:58:45;4.40;99.90
26803;DHT22;14378;51.796;5.808;2023-04-03T08:00:49;4.40;99.90
26803;DHT22;14378;51.796;5.808;2023-04-03T08:02:54;4.60;99.90
26803;DHT22;14378;51.796;5.808;2023-04-03T08:04:58;4.60;99.90
26803;DHT22;14378;51.796;5.808;2023-04-03T08:07:01;4.60;99.90
26803;DHT22;14378;51.796;5.808;2023-04-03T08:09:03;4.70;99.90
26803;DHT22;14378;51.796;5.808;2023-04-03T08:11:04;4.70;99.90
26803;DHT22;14378;51.796;5.808;2023-04-03T08:13:07;4.80;99.90
26803;DHT22;14378;51.796;5.808;2023-04-03T08:15:09;4.80;99.90
26803;DHT22;14378;51.796;5.808;2023-04-03T08:17:10;4.80;99.90
26803;DHT22;14378;51.796;5.808;2023-04-03T08:19:15;4.90;99.90
26803;DHT22;14378;51.796;5.808;2023-04-03T08:21:21;4.90;99.90
26803;DHT22;14378;51.796;5.808;2023-04-03T08:23:25;5.00;99.90
26803;DHT22;14378;51.796;5.808;2023-04-03T08:25:27;5.00;99.90
26803;DHT22;14378;51.796;5.808;2023-04-03T08:27:30;5.10;99.90
26803;DHT22;14378;51.796;5.808;2023-04-03T08:29:31;5.10;99.90
26803;DHT22;14378;51.796;5.808;2023-04-03T08:31:35;5.20;99.90
26803;DHT22;14378;51.796;5.808;2023-04-03T08:33:36;5.30;99.90
26803;DHT22;14378;51.796;5.808;2023-04-03T08:35:47;5.40;99.90
26803;DHT22;14378;51.796;5.808;2023-04-03T08:37:48;5.50;99.90
26803;DHT22;14378;51.796;5.808;2023-04-03T08:39:49;5.60;99.90
26803;DHT22;14378;51.796;5.808;2023-04-03T08:41:50;5.70;99.90
26803;DHT22;14378;51.796;5.808;2023-04-03T08:44:35;5.80;99.90
26803;DHT22;14378;51.796;5.808;2023-04-03T08:49:04;6.10;99.90
26803;DHT22;14378;51.796;5.808;2023-04-03T08:51:16;6.30;99.90
26803;DHT22;14378;51.796;5.808;2023-04-03T08:53:21;6.40;99.90
26803;DHT22;14378;51.796;5.808;2023-04-03T08:56:00;6.60;99.90
26803;DHT22;14378;51.796;5.808;2023-04-03T08:58:00;6.70;99.90
26803;DHT22;14378;51.796;5.808;2023-04-03T09:02:47;7.00;99.90
26803;DHT22;14378;51.796;5.808;2023-04-03T09:04:49;7.20;99.90
26803;DHT22;14378;51.796;5.808;2023-04-03T09:06:55;7.20;99.90
26803;DHT22;14378;51.796;5.808;2023-04-03T09:09:22;7.30;99.90
26803;DHT22;14378;51.796;5.808;2023-04-03T09:11:33;7.50;99.90
26803;DHT22;14378;51.796;5.808;2023-04-03T09:15:56;7.90;99.90
26803;DHT22;14378;51.796;5.808;2023-04-03T09:20:11;8.20;99.90
26803;DHT22;14378;51.796;5.808;2023-04-03T09:22:25;8.30;99.90
26803;DHT22;14378;51.796;5.808;2023-04-03T09:24:26;8.50;99.90
26803;DHT22;14378;51.796;5.808;2023-04-03T09:26:56;8.70;99.90
26803;DHT22;14378;51.796;5.808;2023-04-03T09:29:06;8.80;99.60
26803;DHT22;14378;51.796;5.808;2023-04-03T09:31:24;9.00;98.00
26803;DHT22;14378;51.796;5.808;2023-04-03T09:33:25;9.10;98.70
26803;DHT22;14378;51.796;5.808;2023-04-03T09:35:29;9.20;98.40
26803;DHT22;14378;51.796;5.808;2023-04-03T09:37:38;9.40;99.50
26803;DHT22;14378;51.796;5.808;2023-04-03T09:39:52;9.60;97.40
26803;DHT22;14378;51.796;5.808;2023-04-03T09:42:00;9.70;98.30
26803;DHT22;14378;51.796;5.808;2023-04-03T09:44:03;10.00;98.80
26803;DHT22;14378;51.796;5.808;2023-04-03T09:46:24;10.20;97.50
26803;DHT22;14378;51.796;5.808;2023-04-03T09:48:27;10.30;97.10
26803;DHT22;14378;51.796;5.808;2023-04-03T09:50:28;10.50;96.70
26803;DHT22;14378;51.796;5.808;2023-04-03T09:52:30;10.60;96.60
26803;DHT22;14378;51.796;5.808;2023-04-03T09:54:36;10.70;96.10
26803;DHT22;14378;51.796;5.808;2023-04-03T09:56:39;10.80;94.80
26803;DHT22;14378;51.796;5.808;2023-04-03T09:58:40;10.90;95.30
26803;DHT22;14378;51.796;5.808;2023-04-03T10:00:43;11.00;93.70
26803;DHT22;14378;51.796;5.808;2023-04-03T10:02:50;11.20;94.50
26803;DHT22;14378;51.796;5.808;2023-04-03T10:04:52;11.40;94.50
26803;DHT22;14378;51.796;5.808;2023-04-03T10:06:56;11.70;94.50
26803;DHT22;14378;51.796;5.808;2023-04-03T10:09:06;11.80;95.10
26803;DHT22;14378;51.796;5.808;2023-04-03T10:11:18;11.90;93.60
26803;DHT22;14378;51.796;5.808;2023-04-03T10:13:24;12.00;92.50
26803;DHT22;14378;51.796;5.808;2023-04-03T10:15:27;12.10;92.80
26803;DHT22;14378;51.796;5.808;2023-04-03T10:25:15;12.80;91.50
26803;DHT22;14378;51.796;5.808;2023-04-03T10:39:04;13.40;89.40
26803;DHT22;14378;51.796;5.808;2023-04-03T10:43:42;13.60;90.50
26803;DHT22;14378;51.796;5.808;2023-04-03T10:45:51;13.80;90.00
26803;DHT22;14378;51.796;5.808;2023-04-03T10:55:34;14.30;91.00
26803;DHT22;14378;51.796;5.808;2023-04-03T10:57:36;14.20;85.40
26803;DHT22;14378;51.796;5.808;2023-04-03T10:59:49;14.20;86.70
26803;DHT22;14378;51.796;5.808;2023-04-03T11:04:11;14.50;91.10
26803;DHT22;14378;51.796;5.808;2023-04-03T11:06:15;14.60;86.50
26803;DHT22;14378;51.796;5.808;2023-04-03T11:08:26;14.70;88.10
26803;DHT22;14378;51.796;5.808;2023-04-03T11:12:46;14.90;87.80
26803;DHT22;14378;51.796;5.808;2023-04-03T11:14:52;14.90;88.10
26803;DHT22;14378;51.796;5.808;2023-04-03T11:19:36;14.70;82.90
26803;DHT22;14378;51.796;5.808;2023-04-03T11:21:42;14.80;86.90
26803;DHT22;14378;51.796;5.808;2023-04-03T11:23:48;14.80;84.90
26803;DHT22;14378;51.796;5.808;2023-04-03T11:25:54;15.00;88.20
26803;DHT22;14378;51.796;5.808;2023-04-03T11:27:58;15.10;87.10
26803;DHT22;14378;51.796;5.808;2023-04-03T11:30:00;15.00;81.40
26803;DHT22;14378;51.796;5.808;2023-04-03T11:34:51;15.10;82.80
26803;DHT22;14378;51.796;5.808;2023-04-03T11:36:57;15.30;84.90
26803;DHT22;14378;51.796;5.808;2023-04-03T11:39:08;15.30;82.80
26803;DHT22;14378;51.796;5.808;2023-04-03T11:41:11;15.50;84.80
26803;DHT22;14378;51.796;5.808;2023-04-03T11:43:27;15.60;84.30
26803;DHT22;14378;51.796;5.808;2023-04-03T11:45:36;15.80;87.10
26803;DHT22;14378;51.796;5.808;2023-04-03T11:47:49;16.00;85.90
26803;DHT22;14378;51.796;5.808;2023-04-03T11:50:04;16.10;83.50
26803;DHT22;14378;51.796;5.808;2023-04-03T11:52:10;16.10;84.60
26803;DHT22;14378;51.796;5.808;2023-04-03T11:56:41;16.10;86.40
26803;DHT22;14378;51.796;5.808;2023-04-03T12:01:10;16.10;83.80
26803;DHT22;14378;51.796;5.808;2023-04-03T12:05:28;16.20;82.20
26803;DHT22;14378;51.796;5.808;2023-04-03T12:07:30;16.20;81.20
26803;DHT22;14378;51.796;5.808;2023-04-03T12:09:51;16.20;81.20
26803;DHT22;14378;51.796;5.808;2023-04-03T12:11:56;16.30;79.70
26803;DHT22;14378;51.796;5.808;2023-04-03T12:16:00;16.30;81.40
26803;DHT22;14378;51.796;5.808;2023-04-03T12:21:01;16.40;78.10
26803;DHT22;14378;51.796;5.808;2023-04-03T12:23:29;16.40;80.80
26803;DHT22;14378;51.796;5.808;2023-04-03T12:26:18;16.50;82.70
26803;DHT22;14378;51.796;5.808;2023-04-03T12:28:23;16.80;82.90
26803;DHT22;14378;51.796;5.808;2023-04-03T12:30:30;16.90;82.80
26803;DHT22;14378;51.796;5.808;2023-04-03T12:37:06;17.30;80.00
26803;DHT22;14378;51.796;5.808;2023-04-03T12:39:22;17.10;80.40
26803;DHT22;14378;51.796;5.808;2023-04-03T12:45:29;17.50;84.60
26803;DHT22;14378;51.796;5.808;2023-04-03T12:47:42;17.70;80.60
26803;DHT22;14378;51.796;5.808;2023-04-03T12:49:49;17.70;80.70
26803;DHT22;14378;51.796;5.808;2023-04-03T12:51:51;17.90;81.80
26803;DHT22;14378;51.796;5.808;2023-04-03T12:54:45;18.00;81.50
26803;DHT22;14378;51.796;5.808;2023-04-03T12:56:35;18.20;81.30
26803;DHT22;14378;51.796;5.808;2023-04-03T12:58:37;18.20;79.70
26803;DHT22;14378;51.796;5.808;2023-04-03T13:00:38;18.20;82.10
26803;DHT22;14378;51.796;5.808;2023-04-03T13:02:44;18.20;81.70
26803;DHT22;14378;51.796;5.808;2023-04-03T13:04:47;18.40;81.90
26803;DHT22;14378;51.796;5.808;2023-04-03T13:06:48;18.50;81.60
26803;DHT22;14378;51.796;5.808;2023-04-03T13:08:52;18.50;78.30
26803;DHT22;14378;51.796;5.808;2023-04-03T13:11:07;18.50;80.80
26803;DHT22;14378;51.796;5.808;2023-04-03T13:13:15;18.40;78.60
26803;DHT22;14378;51.796;5.808;2023-04-03T13:15:26;18.50;78.30
26803;DHT22;14378;51.796;5.808;2023-04-03T13:17:28;18.70;83.20
26803;DHT22;14378;51.796;5.808;2023-04-03T13:19:30;18.60;75.60
26803;DHT22;14378;51.796;5.808;2023-04-03T13:21:33;18.40;75.60
26803;DHT22;14378;51.796;5.808;2023-04-03T13:23:36;18.50;77.10
26803;DHT22;14378;51.796;5.808;2023-04-03T13:25:45;18.60;81.60
26803;DHT22;14378;51.796;5.808;2023-04-03T13:27:48;18.60;76.60
26803;DHT22;14378;51.796;5.808;2023-04-03T13:29:51;18.50;75.80
26803;DHT22;14378;51.796;5.808;2023-04-03T13:31:56;18.50;76.30
26803;DHT22;14378;51.796;5.808;2023-04-03T13:34:11;18.60;76.20
26803;DHT22;14378;51.796;5.808;2023-04-03T13:36:22;18.60;75.10
26803;DHT22;14378;51.796;5.808;2023-04-03T13:38:29;18.70;78.90
26803;DHT22;14378;51.796;5.808;2023-04-03T13:40:35;18.90;80.20
26803;DHT22;14378;51.796;5.808;2023-04-03T13:42:59;18.90;78.10
26803;DHT22;14378;51.796;5.808;2023-04-03T13:45:28;18.80;76.60
26803;DHT22;14378;51.796;5.808;2023-04-03T13:47:39;18.80;80.10
26803;DHT22;14378;51.796;5.808;2023-04-03T13:49:43;18.80;79.80
26803;DHT22;14378;51.796;5.808;2023-04-03T13:51:45;18.90;76.70
26803;DHT22;14378;51.796;5.808;2023-04-03T13:53:57;18.90;74.50
26803;DHT22;14378;51.796;5.808;2023-04-03T13:56:07;18.80;76.20
26803;DHT22;14378;51.796;5.808;2023-04-03T14:02:56;18.80;77.30
26803;DHT22;14378;51.796;5.808;2023-04-03T14:05:02;18.70;76.50
26803;DHT22;14378;51.796;5.808;2023-04-03T14:07:04;18.60;77.20
26803;DHT22;14378;51.796;5.808;2023-04-03T14:09:07;18.40;76.50
26803;DHT22;14378;51.796;5.808;2023-04-03T14:11:22;18.40;76.90
26803;DHT22;14378;51.796;5.808;2023-04-03T14:13:25;18.30;76.60
26803;DHT22;14378;51.796;5.808;2023-04-03T14:15:28;18.30;76.00
26803;DHT22;14378;51.796;5.808;2023-04-03T14:17:30;18.30;73.80
26803;DHT22;14378;51.796;5.808;2023-04-03T14:19:34;18.20;74.40
26803;DHT22;14378;51.796;5.808;2023-04-03T14:21:35;18.10;76.60
26803;DHT22;14378;51.796;5.808;2023-04-03T14:23:40;18.00;74.30
26803;DHT22;14378;51.796;5.808;2023-04-03T14:25:41;17.80;74.40
26803;DHT22;14378;51.796;5.808;2023-04-03T14:27:45;17.70;76.60
26803;DHT22;14378;51.796;5.808;2023-04-03T14:29:47;17.60;74.60
26803;DHT22;14378;51.796;5.808;2023-04-03T14:31:49;17.50;77.10
26803;DHT22;14378;51.796;5.808;2023-04-03T14:33:50;17.30;75.90
26803;DHT22;14378;51.796;5.808;2023-04-03T14:35:51;17.30;77.90
26803;DHT22;14378;51.796;5.808;2023-04-03T14:37:58;17.20;78.10
26803;DHT22;14378;51.796;5.808;2023-04-03T14:40:03;17.10;79.40
26803;DHT22;14378;51.796;5.808;2023-04-03T14:42:04;16.90;77.10